createdAt,value
2022-11-04T00:04:16.270Z,12.73
2022-11-04T00:09:08.673Z,14.63
2022-11-04T00:14:12.482Z,12.43
2022-11-04T00:19:11.769Z,13.63
2022-11-04T00:24:16.212Z,12.73
2022-11-04T00:29:01.292Z,12.63
2022-11-04T00:33:44.915Z,12.60
2022-11-04T00:38:36.015Z,10.67
2022-11-04T00:43:28.105Z,11.30
2022-11-04T00:48:15.015Z,13.27
2022-11-04T00:53:01.575Z,13.73
2022-11-04T00:57:54.521Z,14.43
2022-11-04T01:02:38.481Z,13.27
2022-11-04T01:07:26.402Z,14.97
2022-11-04T01:12:17.043Z,13.57
2022-11-04T01:17:01.460Z,18.00
2022-11-04T01:21:53.082Z,14.53
2022-11-04T01:26:41.216Z,15.60
2022-11-04T01:31:25.841Z,19.07
2022-11-04T01:36:15.371Z,20.67
2022-11-04T01:41:02.385Z,16.47
2022-11-04T01:45:53.268Z,17.93
2022-11-04T01:50:56.819Z,18.50
2022-11-04T01:56:01.261Z,20.40
2022-11-04T02:00:47.223Z,19.50
2022-11-04T02:05:34.065Z,21.93
2022-11-04T02:10:28.364Z,21.00
2022-11-04T02:15:12.529Z,22.07
2022-11-04T02:20:29.908Z,26.20
2022-11-04T02:25:40.523Z,24.13
2022-11-04T02:31:00.469Z,21.80
2022-11-04T02:36:03.303Z,21.37
2022-11-04T02:41:05.100Z,21.10
2022-11-04T02:45:52.652Z,23.20
2022-11-04T02:50:53.970Z,25.13
2022-11-04T02:55:46.914Z,22.97
2022-11-04T03:00:31.220Z,23.90
2022-11-04T03:10:39.413Z,18.97
2022-11-04T03:15:28.170Z,21.47
2022-11-04T03:20:28.221Z,21.00
2022-11-04T03:25:17.788Z,21.20
2022-11-04T03:30:05.746Z,18.47
2022-11-04T03:34:54.969Z,20.40
2022-11-04T03:39:42.818Z,20.70
2022-11-04T03:44:30.615Z,21.50
2022-11-04T03:49:17.859Z,25.23
2022-11-04T03:54:37.654Z,22.80
2022-11-04T03:59:56.864Z,26.00
2022-11-04T04:05:30.507Z,26.67
2022-11-04T04:10:36.567Z,25.73
2022-11-04T04:15:56.362Z,27.17
2022-11-04T04:21:07.293Z,26.83
2022-11-04T04:26:08.017Z,27.40
2022-11-04T04:31:00.324Z,27.53
2022-11-04T04:35:58.969Z,26.40
2022-11-04T04:41:05.815Z,29.53
2022-11-04T04:45:53.896Z,32.50
2022-11-04T04:50:39.014Z,29.80
2022-11-04T04:55:25.605Z,28.97
2022-11-04T05:00:15.288Z,32.80
2022-11-04T05:05:02.675Z,33.57
2022-11-04T05:09:49.066Z,29.47
2022-11-04T05:14:38.445Z,31.53
2022-11-04T05:19:27.975Z,34.10
2022-11-04T05:24:16.119Z,36.07
2022-11-04T05:35:00.540Z,39.30
2022-11-04T05:39:45.724Z,38.07
2022-11-04T05:44:29.259Z,35.27
2022-11-04T05:49:12.884Z,33.87
2022-11-04T05:53:56.672Z,32.70
2022-11-04T06:05:00.787Z,26.57
2022-11-04T06:10:10.016Z,25.37
2022-11-04T06:14:56.156Z,22.70
2022-11-04T06:26:10.811Z,18.73
2022-11-04T06:30:54.353Z,16.03
2022-11-04T06:35:44.466Z,19.87
2022-11-04T06:40:31.221Z,15.23
2022-11-04T06:45:19.448Z,12.67
2022-11-04T06:50:07.340Z,14.33
2022-11-04T06:54:54.852Z,12.67
2022-11-04T07:00:16.086Z,11.40
2022-11-04T07:17:18.587Z,9.87
2022-11-04T07:22:10.887Z,11.07
2022-11-04T07:26:56.594Z,10.33
2022-11-04T07:31:42.068Z,10.87
2022-11-04T07:37:51.911Z,12.23
2022-11-04T07:42:59.401Z,10.43
2022-11-04T07:47:58.560Z,10.03
2022-11-04T08:12:13.839Z,12.57
2022-11-04T08:17:00.948Z,8.17
2022-11-04T08:21:45.241Z,8.20
2022-11-04T08:26:28.936Z,7.03
2022-11-04T08:31:18.542Z,7.97
2022-11-04T08:36:05.831Z,8.80
2022-11-04T08:40:57.042Z,9.37
2022-11-04T08:45:47.501Z,7.73
2022-11-04T08:50:34.799Z,6.13
2022-11-04T08:55:19.108Z,7.13
2022-11-04T09:00:07.107Z,7.23
2022-11-04T09:04:51.407Z,7.23
2022-11-04T09:09:37.068Z,5.87
2022-11-04T09:14:21.352Z,7.00
2022-11-04T09:19:05.306Z,6.27
2022-11-04T09:23:51.618Z,6.23
2022-11-04T09:28:37.260Z,7.33
2022-11-04T09:33:23.946Z,9.43
2022-11-04T09:38:07.921Z,8.10
2022-11-04T09:43:34.646Z,8.07
2022-11-04T09:48:28.033Z,8.03
2022-11-04T09:55:14.088Z,10.30
2022-11-04T10:05:00.657Z,9.03
2022-11-04T10:09:59.869Z,7.13
2022-11-04T10:15:25.765Z,6.93
2022-11-04T10:20:44.469Z,5.70
2022-11-04T10:25:52.080Z,6.60
2022-11-04T10:30:37.045Z,5.03
2022-11-04T10:35:40.982Z,6.23
2022-11-04T10:40:44.671Z,5.50
2022-11-04T10:45:53.231Z,5.67
2022-11-04T10:50:55.943Z,5.07
2022-11-04T10:55:58.769Z,5.90
2022-11-04T11:00:47.140Z,6.40
2022-11-04T11:05:36.177Z,6.33
2022-11-04T11:10:25.530Z,4.87
2022-11-04T11:15:29.622Z,7.70
2022-11-04T11:20:32.641Z,4.60
2022-11-04T11:25:38.937Z,7.23
2022-11-04T11:30:44.382Z,5.73
2022-11-04T11:35:32.710Z,5.07
2022-11-04T11:41:10.483Z,6.00
2022-11-04T11:45:51.237Z,6.47
2022-11-04T11:50:57.886Z,5.13
2022-11-04T11:55:47.944Z,6.30
2022-11-04T12:01:52.474Z,5.90
2022-11-04T12:13:09.365Z,4.63
2022-11-04T12:18:41.874Z,4.37
2022-11-04T12:23:43.720Z,5.63
2022-11-04T12:28:44.476Z,5.67
2022-11-04T12:34:09.847Z,5.20
2022-11-04T12:39:29.047Z,5.47
2022-11-04T12:45:16.342Z,4.67
2022-11-04T12:50:39.618Z,4.80
2022-11-04T12:55:58.319Z,4.63
2022-11-04T13:01:20.578Z,4.90
2022-11-04T13:12:05.563Z,6.00
2022-11-04T13:17:50.171Z,6.33
2022-11-04T13:22:52.437Z,6.90
2022-11-04T13:28:04.717Z,6.60
2022-11-04T13:46:02.060Z,5.67
2022-11-04T13:51:27.850Z,5.83
2022-11-04T13:56:46.078Z,5.97
2022-11-04T14:01:37.728Z,6.40
2022-11-04T14:06:55.405Z,6.40
2022-11-04T14:12:13.513Z,7.70
2022-11-04T14:23:43.407Z,9.73
2022-11-04T14:28:32.389Z,6.73
2022-11-04T14:33:50.189Z,6.07
2022-11-04T14:38:37.215Z,6.80
2022-11-04T14:44:00.503Z,6.47
2022-11-04T14:48:52.236Z,9.60
2022-11-04T14:53:39.160Z,6.73
2022-11-04T14:58:25.492Z,8.27
2022-11-04T15:08:43.559Z,10.17
2022-11-04T15:13:35.219Z,7.53
2022-11-04T15:24:48.401Z,8.23
2022-11-04T15:29:35.315Z,8.13
2022-11-04T15:34:45.352Z,6.57
2022-11-04T15:39:33.655Z,9.17
2022-11-04T15:44:30.956Z,10.47
2022-11-04T15:49:25.490Z,6.87
2022-11-04T15:54:26.958Z,7.53
2022-11-04T15:59:16.386Z,11.17
2022-11-04T16:04:03.054Z,9.37
2022-11-04T16:09:05.789Z,12.40
2022-11-04T16:13:52.512Z,10.60
2022-11-04T16:18:43.012Z,10.03
2022-11-04T16:23:41.965Z,10.07
2022-11-04T16:29:21.171Z,10.23
2022-11-04T16:34:43.370Z,8.03
2022-11-04T16:39:28.356Z,8.03
2022-11-04T16:44:37.943Z,6.53
2022-11-04T16:56:35.353Z,9.37
2022-11-04T17:01:21.599Z,7.53
2022-11-04T17:06:29.654Z,7.23
2022-11-04T17:11:42.424Z,7.80
2022-11-04T17:16:50.926Z,8.33
2022-11-04T17:21:56.484Z,8.23
2022-11-04T17:26:41.744Z,8.70
2022-11-04T17:32:01.309Z,8.90
2022-11-04T18:00:31.567Z,9.50
2022-11-04T18:05:36.209Z,10.30
2022-11-04T18:10:26.142Z,10.23
2022-11-04T18:15:12.870Z,8.57
2022-11-04T18:25:04.102Z,9.57
2022-11-04T18:29:51.344Z,8.07
2022-11-04T18:34:36.725Z,8.10
2022-11-04T18:39:29.581Z,10.30
2022-11-04T18:44:17.175Z,10.03
2022-11-04T18:49:03.853Z,9.17
2022-11-04T18:53:49.633Z,8.97
2022-11-04T18:58:44.924Z,9.80
2022-11-04T19:04:02.594Z,9.10
2022-11-04T19:15:29.174Z,10.37
2022-11-04T19:20:59.690Z,9.90
2022-11-04T19:32:32.037Z,10.77
2022-11-04T19:38:09.201Z,11.07
2022-11-04T19:49:21.086Z,11.33
2022-11-04T19:54:09.651Z,11.70
2022-11-04T19:59:12.667Z,9.50
2022-11-04T20:04:01.087Z,10.53
2022-11-04T20:08:48.934Z,11.50
2022-11-04T20:13:52.041Z,12.23
2022-11-04T20:18:41.542Z,11.17
2022-11-04T20:23:32.152Z,10.57
2022-11-04T20:28:15.574Z,8.73
2022-11-04T20:33:18.868Z,10.33
2022-11-04T20:38:10.295Z,9.43
2022-11-04T20:42:56.001Z,11.33
2022-11-04T20:47:43.956Z,13.07
2022-11-04T20:52:46.288Z,11.43
2022-11-04T20:57:41.206Z,11.77
2022-11-04T21:02:26.409Z,12.07
2022-11-04T21:07:10.718Z,10.57
2022-11-04T21:12:05.318Z,11.57
2022-11-04T21:16:49.811Z,11.27
2022-11-04T21:21:36.359Z,11.13
2022-11-04T21:26:24.825Z,12.33
2022-11-04T21:31:14.487Z,12.13
2022-11-04T21:36:02.918Z,16.53
2022-11-04T21:40:48.414Z,11.93
2022-11-04T21:46:06.641Z,13.20
2022-11-04T21:51:00.800Z,10.57
2022-11-04T21:55:44.633Z,15.20
2022-11-04T22:00:32.667Z,12.80
2022-11-04T22:05:34.483Z,20.67
2022-11-04T22:10:26.688Z,11.50
2022-11-04T22:15:10.934Z,16.43
2022-11-04T22:20:05.569Z,12.63
2022-11-04T22:25:03.368Z,16.57
2022-11-04T22:29:50.368Z,12.07
2022-11-04T22:34:38.062Z,14.53
2022-11-04T22:39:32.108Z,13.97
2022-11-04T22:44:16.095Z,14.33
2022-11-04T22:49:05.448Z,12.17
2022-11-04T22:54:14.078Z,12.40
2022-11-04T22:59:10.442Z,14.93
2022-11-04T23:04:00.550Z,13.20
2022-11-04T23:08:47.368Z,13.63
2022-11-04T23:13:53.056Z,16.00
2022-11-04T23:18:43.188Z,14.73
2022-11-04T23:23:44.170Z,11.93
2022-11-04T23:28:48.618Z,11.73
2022-11-04T23:33:53.324Z,11.40
2022-11-04T23:38:55.665Z,12.43
2022-11-04T23:43:42.205Z,15.63
2022-11-04T23:49:23.256Z,16.73
2022-11-04T23:54:26.615Z,15.67
2022-11-04T23:59:31.609Z,18.77
